Observation data for O'Donnell on 11/19/2019      Previous  Date       Current Mesonet Observations  Soil Data  Daily Summary Page  Observations in Plain Language
KOES 190600Z 07003KT 08/01 A2997 RMK A01 T00750012  RH  065%=      5-min Rain = 0
KOES 190605Z 08003KT 08/01 A2997 RMK A01 T00820010  RH  061%=      5-min Rain = 0
KOES 190610Z 08002KT 08/01 A2997 RMK A01 T00830011  RH  061%=      5-min Rain = 0
KOES 190615Z 08002KT 08/01 A2997 RMK A01 T00810011  RH  062%=      5-min Rain = 0
KOES 190620Z 09002KT 08/01 A2998 RMK A01 T00790011  RH  063%=      5-min Rain = 0
KOES 190625Z 15000KT 07/01 A2998 RMK A01 T00700012  RH  067%=      5-min Rain = 0
KOES 190630Z 09001KT 07/01 A2998 RMK A01 T00730011  RH  066%=      5-min Rain = 0
KOES 190635Z 10001KT 08/01 A2998 RMK A01 T00790009  RH  062%=      5-min Rain = 0
KOES 190640Z 14001KT 08/01 A2998 RMK A01 T00760009  RH  063%=      5-min Rain = 0
KOES 190645Z 14003KT 08/01 A2998 RMK A01 T00800007  RH  061%=      5-min Rain = 0
KOES 190650Z 13003KT 09/01 A2998 RMK A01 T00850008  RH  059%=      5-min Rain = 0
KOES 190655Z 12003KT 09/01 A2998 RMK A01 T00920008  RH  056%=      5-min Rain = 0
KOES 190700Z 12003KT 10/01 A2998 RMK A01 T00950009  RH  056%=      5-min Rain = 0
KOES 190705Z 11003KT 10/01 A2998 RMK A01 T00960009  RH  055%=      5-min Rain = 0
KOES 190710Z 11003KT 10/01 A2998 RMK A01 T00960009  RH  056%=      5-min Rain = 0
KOES 190715Z 09002KT 09/01 A2998 RMK A01 T00930010  RH  057%=      5-min Rain = 0
KOES 190720Z 15001KT 09/01 A2998 RMK A01 T00900009  RH  058%=      5-min Rain = 0
KOES 190725Z 16000KT 10/01 A2998 RMK A01 T00960008  RH  055%=      5-min Rain = 0
KOES 190730Z 17000KT 09/01 A2998 RMK A01 T00910009  RH  057%=      5-min Rain = 0
KOES 190735Z 09001KT 08/01 A2998 RMK A01 T00820010  RH  061%=      5-min Rain = 0
KOES 190740Z 10002KT 08/01 A2998 RMK A01 T00770011  RH  064%=      5-min Rain = 0
KOES 190745Z 09002KT 08/01 A2998 RMK A01 T00780011  RH  063%=      5-min Rain = 0
KOES 190750Z 07002KT 07/01 A2998 RMK A01 T00690012  RH  068%=      5-min Rain = 0
KOES 190755Z 08002KT 08/01 A2998 RMK A01 T00770012  RH  064%=      5-min Rain = 0
KOES 190800Z 10002KT 08/01 A2998 RMK A01 T00830012  RH  062%=      5-min Rain = 0
KOES 190805Z 10002KT 09/01 A2998 RMK A01 T00920011  RH  058%=      5-min Rain = 0
KOES 190810Z 08003KT 09/01 A2997 RMK A01 T00910012  RH  058%=      5-min Rain = 0
KOES 190815Z 07003KT 08/01 A2997 RMK A01 T00810013  RH  063%=      5-min Rain = 0
KOES 190820Z 07003KT 08/01 A2997 RMK A01 T00780013  RH  065%=      5-min Rain = 0
KOES 190825Z 08003KT 08/01 A2998 RMK A01 T00760012  RH  065%=      5-min Rain = 0
KOES 190830Z 10002KT 07/01 A2998 RMK A01 T00740012  RH  066%=      5-min Rain = 0
KOES 190835Z 10001KT 07/02 A2998 RMK A01 T00710015  RH  069%=      5-min Rain = 0
KOES 190840Z 11001KT 07/01 A2998 RMK A01 T00660013  RH  070%=      5-min Rain = 0
KOES 190845Z 09003KT 07/01 A2998 RMK A01 T00710013  RH  067%=      5-min Rain = 0
KOES 190850Z 09003KT 07/01 A2998 RMK A01 T00710014  RH  068%=      5-min Rain = 0
KOES 190855Z 10003KT 07/01 A2998 RMK A01 T00650014  RH  071%=      5-min Rain = 0
KOES 190900Z 09003KT 06/01 A2998 RMK A01 T00610013  RH  073%=      5-min Rain = 0
KOES 190905Z 08004KT 06/01 A2998 RMK A01 T00610013  RH  072%=      5-min Rain = 0
KOES 190910Z 06004KT 06/01 A2997 RMK A01 T00610014  RH  073%=      5-min Rain = 0
KOES 190915Z 07003KT 06/01 A2998 RMK A01 T00620013  RH  072%=      5-min Rain = 0
KOES 190920Z 08003KT 06/01 A2997 RMK A01 T00630013  RH  071%=      5-min Rain = 0
KOES 190925Z 07003KT 06/01 A2997 RMK A01 T00630013  RH  072%=      5-min Rain = 0
KOES 190930Z 07003KT 06/01 A2997 RMK A01 T00610013  RH  072%=      5-min Rain = 0
KOES 190935Z 07003KT 06/01 A2997 RMK A01 T00620014  RH  072%=      5-min Rain = 0
KOES 190940Z 08003KT 06/01 A2997 RMK A01 T00600014  RH  074%=      5-min Rain = 0
KOES 190945Z 08003KT 06/02 A2997 RMK A01 T00630015  RH  073%=      5-min Rain = 0
KOES 190950Z 08003KT 06/01 A2997 RMK A01 T00630014  RH  072%=      5-min Rain = 0
KOES 190955Z 09003KT 06/01 A2997 RMK A01 T00630014  RH  072%=      5-min Rain = 0
KOES 191000Z 09003KT 07/02 A2996 RMK A01 T00680015  RH  070%=      5-min Rain = 0
KOES 191005Z 08003KT 07/01 A2996 RMK A01 T00690014  RH  069%=      5-min Rain = 0
KOES 191010Z 08002KT 07/01 A2996 RMK A01 T00680013  RH  069%=      5-min Rain = 0
KOES 191015Z 06001KT 07/01 A2996 RMK A01 T00690012  RH  068%=      5-min Rain = 0
KOES 191020Z 01001KT 06/01 A2997 RMK A01 T00600011  RH  072%=      5-min Rain = 0
KOES 191025Z 36001KT 05/01 A2996 RMK A01 T00530011  RH  076%=      5-min Rain = 0
KOES 191030Z 33001KT 05/01 A2996 RMK A01 T00520013  RH  076%=      5-min Rain = 0
KOES 191035Z 33002KT 05/01 A2996 RMK A01 T00530014  RH  077%=      5-min Rain = 0
KOES 191040Z 34002KT 05/01 A2996 RMK A01 T00530014  RH  077%=      5-min Rain = 0
KOES 191045Z 33003KT 05/01 A2996 RMK A01 T00520014  RH  078%=      5-min Rain = 0
KOES 191050Z 32004KT 05/02 A2996 RMK A01 T00530015  RH  077%=      5-min Rain = 0
KOES 191055Z 32004KT 05/02 A2996 RMK A01 T00520015  RH  078%=      5-min Rain = 0
KOES 191100Z 31004KT 05/02 A2997 RMK A01 T00500015  RH  079%=      5-min Rain = 0
KOES 191105Z 32005KT 05/02 A2996 RMK A01 T00470015  RH  081%=      5-min Rain = 0
KOES 191110Z 32006KT 05/02 A2996 RMK A01 T00460015  RH  081%=      5-min Rain = 0
KOES 191115Z 31006KT 05/02 A2996 RMK A01 T00470015  RH  081%=      5-min Rain = 0
KOES 191120Z 32007KT 05/02 A2996 RMK A01 T00460015  RH  081%=      5-min Rain = 0
KOES 191125Z 33007KT 05/02 A2996 RMK A01 T00470015  RH  081%=      5-min Rain = 0
KOES 191130Z 33007KT 05/01 A2996 RMK A01 T00470014  RH  080%=      5-min Rain = 0
KOES 191135Z 33007KT 05/01 A2996 RMK A01 T00460014  RH  081%=      5-min Rain = 0
KOES 191140Z 34006KT 05/01 A2995 RMK A01 T00470014  RH  080%=      5-min Rain = 0
KOES 191145Z 34006KT 05/01 A2995 RMK A01 T00460014  RH  081%=      5-min Rain = 0
KOES 191150Z 35006KT 05/01 A2995 RMK A01 T00450014  RH  081%=      5-min Rain = 0
KOES 191155Z 36006KT 05/01 A2995 RMK A01 T00450014  RH  082%=      5-min Rain = 0
KOES 191200Z 36005KT 05/02 A2995 RMK A01 T00450015  RH  082%=      5-min Rain = 0
KOES 191205Z 00005KT 05/02 A2995 RMK A01 T00450015  RH  082%=      5-min Rain = 0
KOES 191210Z 01004KT 04/02 A2995 RMK A01 T00430015  RH  083%=      5-min Rain = 0
KOES 191215Z 01003KT 04/02 A2995 RMK A01 T00440016  RH  084%=      5-min Rain = 0
KOES 191220Z 01002KT 04/02 A2996 RMK A01 T00420015  RH  084%=      5-min Rain = 0
KOES 191225Z 00002KT 04/01 A2996 RMK A01 T00410014  RH  084%=      5-min Rain = 0
KOES 191230Z 02001KT 04/01 A2996 RMK A01 T00420014  RH  083%=      5-min Rain = 0
KOES 191235Z 03001KT 05/01 A2996 RMK A01 T00450014  RH  082%=      5-min Rain = 0
KOES 191240Z 04001KT 05/01 A2996 RMK A01 T00480014  RH  080%=      5-min Rain = 0
KOES 191245Z 04001KT 05/01 A2996 RMK A01 T00470014  RH  080%=      5-min Rain = 0
KOES 191250Z 01001KT 05/01 A2996 RMK A01 T00460013  RH  080%=      5-min Rain = 0
KOES 191255Z 35001KT 05/01 A2996 RMK A01 T00460013  RH  080%=      5-min Rain = 0
KOES 191300Z 34000KT 05/01 A2996 RMK A01 T00460013  RH  080%=      5-min Rain = 0
KOES 191305Z 00000KT 05/01 A2997 RMK A01 T00460013  RH  080%=      5-min Rain = 0
KOES 191310Z 15000KT 04/01 A2997 RMK A01 T00420012  RH  082%=      5-min Rain = 0
KOES 191315Z 15000KT 04/01 A2997 RMK A01 T00410013  RH  083%=      5-min Rain = 0
KOES 191320Z 14001KT 04/02 A2997 RMK A01 T00400018  RH  087%=      5-min Rain = 0
KOES 191325Z 13001KT 04/02 A2997 RMK A01 T00390017  RH  087%=      5-min Rain = 0
KOES 191330Z 15002KT 04/02 A2997 RMK A01 T00370015  RH  086%=      5-min Rain = 0
KOES 191335Z 14002KT 04/01 A2997 RMK A01 T00370014  RH  086%=      5-min Rain = 0
KOES 191340Z 12001KT 04/02 A2997 RMK A01 T00380015  RH  086%=      5-min Rain = 0
KOES 191345Z 13002KT 05/02 A2997 RMK A01 T00450016  RH  083%=      5-min Rain = 0
KOES 191350Z 14003KT 05/02 A2997 RMK A01 T00520018  RH  080%=      5-min Rain = 0
KOES 191355Z 14002KT 06/02 A2997 RMK A01 T00570018  RH  077%=      5-min Rain = 0
KOES 191400Z 15002KT 06/02 A2997 RMK A01 T00610021  RH  076%=      5-min Rain = 0
KOES 191405Z 16002KT 06/02 A2998 RMK A01 T00630022  RH  076%=      5-min Rain = 0
KOES 191410Z 15002KT 07/03 A2998 RMK A01 T00670025  RH  076%=      5-min Rain = 0
KOES 191415Z 15001KT 08/03 A2998 RMK A01 T00790033  RH  074%=      5-min Rain = 0
KOES 191420Z 16002KT 09/03 A2998 RMK A01 T00940026  RH  063%=      5-min Rain = 0
KOES 191425Z 16002KT 10/03 A2998 RMK A01 T00980026  RH  062%=      5-min Rain = 0
KOES 191430Z 16003KT 10/03 A2998 RMK A01 T00980027  RH  062%=      5-min Rain = 0
KOES 191435Z 17003KT 10/02 A2998 RMK A01 T01030022  RH  058%=      5-min Rain = 0
KOES 191440Z 17003KT 11/02 A2998 RMK A01 T01060022  RH  057%=      5-min Rain = 0
KOES 191445Z 18004KT 11/02 A2998 RMK A01 T01060021  RH  056%=      5-min Rain = 0
KOES 191450Z 18004KT 11/02 A2998 RMK A01 T01070021  RH  056%=      5-min Rain = 0
KOES 191455Z 18004KT 11/02 A2998 RMK A01 T01100021  RH  055%=      5-min Rain = 0
KOES 191500Z 18004KT 12/02 A2998 RMK A01 T01150022  RH  054%=      5-min Rain = 0
KOES 191505Z 19006KT 12/02 A2998 RMK A01 T01170023  RH  053%=      5-min Rain = 0
KOES 191510Z 19007KT 12/03 A2998 RMK A01 T01170027  RH  055%=      5-min Rain = 0
KOES 191515Z 19006KT 12/03 A2998 RMK A01 T01190029  RH  055%=      5-min Rain = 0
KOES 191520Z 19005KT 12/03 A2998 RMK A01 T01190030  RH  055%=      5-min Rain = 0
KOES 191525Z 20006KT 12/03 A2998 RMK A01 T01220032  RH  055%=      5-min Rain = 0
KOES 191530Z 20007KT 13/03 A2998 RMK A01 T01250033  RH  055%=      5-min Rain = 0
KOES 191535Z 20009KT 13/04 A2998 RMK A01 T01300035  RH  053%=      5-min Rain = 0
KOES 191540Z 20008KT 14/04 A2998 RMK A01 T01370039  RH  052%=      5-min Rain = 0
KOES 191545Z 20008KT 14/04 A2998 RMK A01 T01440041  RH  051%=      5-min Rain = 0
KOES 191550Z 21011KT 15/04 A2998 RMK A01 T01450041  RH  051%=      5-min Rain = 0
KOES 191555Z 20011KT 15/04 A2998 RMK A01 T01460042  RH  050%=      5-min Rain = 0
KOES 191600Z 20008KT 15/04 A2998 RMK A01 T01470043  RH  051%=      5-min Rain = 0
KOES 191605Z 20010KT 15/04 A2998 RMK A01 T01480044  RH  051%=      5-min Rain = 0
KOES 191610Z 21010KT 15/05 A2998 RMK A01 T01510046  RH  050%=      5-min Rain = 0
KOES 191615Z 20009KT 16/05 A2998 RMK A01 T01570048  RH  049%=      5-min Rain = 0
KOES 191620Z 20007KT 16/05 A2998 RMK A01 T01620049  RH  048%=      5-min Rain = 0
KOES 191625Z 19007KT 16/05 A2998 RMK A01 T01620048  RH  048%=      5-min Rain = 0
KOES 191630Z 20008G13KT 17/05 A2998 RMK A01 T01680048  RH  046%=      5-min Rain = 0
KOES 191635Z 20008KT 17/05 A2997 RMK A01 T01700046  RH  045%=      5-min Rain = 0
KOES 191640Z 19008KT 17/05 A2997 RMK A01 T01720045  RH  044%=      5-min Rain = 0
KOES 191645Z 19010KT 18/04 A2997 RMK A01 T01750043  RH  042%=      5-min Rain = 0
KOES 191650Z 20010KT 18/04 A2997 RMK A01 T01750039  RH  041%=      5-min Rain = 0
KOES 191655Z 19009KT 18/04 A2997 RMK A01 T01790041  RH  041%=      5-min Rain = 0
KOES 191700Z 19009KT 18/04 A2997 RMK A01 T01820038  RH  039%=      5-min Rain = 0
KOES 191705Z 19010KT 19/03 A2997 RMK A01 T01850034  RH  037%=      5-min Rain = 0
KOES 191710Z 19010KT 19/03 A2997 RMK A01 T01870032  RH  036%=      5-min Rain = 0
KOES 191715Z 19010KT 19/03 A2997 RMK A01 T01920034  RH  036%=      5-min Rain = 0
KOES 191720Z 18010KT 19/04 A2996 RMK A01 T01930035  RH  036%=      5-min Rain = 0
KOES 191725Z 19012KT 19/03 A2996 RMK A01 T01940032  RH  035%=      5-min Rain = 0
KOES 191730Z 19011KT 20/03 A2996 RMK A01 T01950034  RH  035%=      5-min Rain = 0
KOES 191735Z 19010KT 20/03 A2995 RMK A01 T01990034  RH  034%=      5-min Rain = 0
KOES 191740Z 20012KT 20/03 A2995 RMK A01 T02030032  RH  033%=      5-min Rain = 0
KOES 191745Z 19009KT 21/03 A2995 RMK A01 T02060034  RH  033%=      5-min Rain = 0
KOES 191750Z 19010KT 21/03 A2995 RMK A01 T02100032  RH  032%=      5-min Rain = 0
KOES 191755Z 18010KT 21/03 A2995 RMK A01 T02100032  RH  031%=      5-min Rain = 0
KOES 191800Z 19010G15KT 21/03 A2994 RMK A01 T02120031  RH  031%=      5-min Rain = 0
KOES 191805Z 19010KT 21/03 A2994 RMK A01 T02120033  RH  031%=      5-min Rain = 0
KOES 191810Z 19009KT 22/03 A2994 RMK A01 T02170034  RH  031%=      5-min Rain = 0
KOES 191815Z 19009KT 22/03 A2994 RMK A01 T02230033  RH  029%=      5-min Rain = 0
KOES 191820Z 19009KT 23/03 A2993 RMK A01 T02260032  RH  028%=      5-min Rain = 0
KOES 191825Z 19008KT 23/03 A2993 RMK A01 T02320031  RH  027%=      5-min Rain = 0
KOES 191830Z 19011KT 23/03 A2992 RMK A01 T02320026  RH  026%=      5-min Rain = 0
KOES 191835Z 18012G18KT 23/02 A2992 RMK A01 T02330016  RH  024%=      5-min Rain = 0
KOES 191840Z 18012G17KT 23/01 A2992 RMK A01 T02300014  RH  024%=      5-min Rain = 0
KOES 191845Z 19010KT 23/02 A2992 RMK A01 T02340022  RH  025%=      5-min Rain = 0
KOES 191850Z 18012KT 23/02 A2991 RMK A01 T02330020  RH  025%=      5-min Rain = 0
KOES 191855Z 19013KT 23/02 A2991 RMK A01 T02300018  RH  025%=      5-min Rain = 0
KOES 191900Z 19012KT 23/02 A2991 RMK A01 T02340019  RH  025%=      5-min Rain = 0
KOES 191905Z 18012G18KT 24/02 A299 RMK A01 T02370015  RH  024%=      5-min Rain = 0
KOES 191910Z 19013KT 24/01 A299 RMK A01 T02390012  RH  023%=      5-min Rain = 0
KOES 191915Z 18013G18KT 24/01 A299 RMK A01 T02400012  RH  023%=      5-min Rain = 0
KOES 191920Z 18012KT 24/01 A2989 RMK A01 T02400013  RH  023%=      5-min Rain = 0
KOES 191925Z 19012KT 24/01 A2989 RMK A01 T02420012  RH  022%=      5-min Rain = 0
KOES 191930Z 19011G16KT 25/01 A2989 RMK A01 T02450012  RH  022%=      5-min Rain = 0
KOES 191935Z 19013G18KT 25/01 A2988 RMK A01 T02450007  RH  021%=      5-min Rain = 0
KOES 191940Z 19012G18KT 25/01 A2988 RMK A01 T02460006  RH  021%=      5-min Rain = 0
KOES 191945Z 19012KT 25/01 A2988 RMK A01 T02470005  RH  021%=      5-min Rain = 0
KOES 191950Z 18012G17KT 25/01 A2987 RMK A01 T02470007  RH  021%=      5-min Rain = 0
KOES 191955Z 19013G18KT 25/00 A2987 RMK A01 T02480004  RH  020%=      5-min Rain = 0
KOES 192000Z 18010KT 25/01 A2987 RMK A01 T02510008  RH  021%=      5-min Rain = 0
KOES 192005Z 19012G17KT 25/01 A2987 RMK A01 T02510005  RH  020%=      5-min Rain = 0
KOES 192010Z 18012KT 25/00 A2987 RMK A01 T02460004  RH  021%=      5-min Rain = 0
KOES 192015Z 19010KT 25/01 A2986 RMK A01 T02480008  RH  021%=      5-min Rain = 0
KOES 192020Z 19011KT 25/01 A2986 RMK A01 T02510009  RH  021%=      5-min Rain = 0
KOES 192025Z 19010G15KT 25/01 A2986 RMK A01 T02520010  RH  021%=      5-min Rain = 0
KOES 192030Z 19010KT 25/01 A2986 RMK A01 T02510009  RH  021%=      5-min Rain = 0
KOES 192035Z 19011G16KT 25/01 A2986 RMK A01 T02530011  RH  021%=      5-min Rain = 0
KOES 192040Z 19009KT 26/01 A2986 RMK A01 T02560012  RH  021%=      5-min Rain = 0
KOES 192045Z 19011KT 26/01 A2985 RMK A01 T02560008  RH  020%=      5-min Rain = 0
KOES 192050Z 18011KT 26/01 A2985 RMK A01 T02550008  RH  020%=      5-min Rain = 0
KOES 192055Z 18010G16KT 26/01 A2985 RMK A01 T02570007  RH  020%=      5-min Rain = 0
KOES 192100Z 19011KT 26/01 A2985 RMK A01 T02590007  RH  020%=      5-min Rain = 0
KOES 192105Z 20012KT 26/01 A2985 RMK A01 T02580006  RH  019%=      5-min Rain = 0
KOES 192110Z 19011G17KT 25/01 A2985 RMK A01 T02540005  RH  020%=      5-min Rain = 0
KOES 192115Z 19010KT 25/00 A2984 RMK A01 T02450004  RH  021%=      5-min Rain = 0
KOES 192120Z 18009G14KT 25/00 A2984 RMK A01 T02500004  RH  020%=      5-min Rain = 0
KOES 192125Z 18011G16KT 25/01 A2984 RMK A01 T02460005  RH  021%=      5-min Rain = 0
KOES 192130Z 18010KT 25/01 A2984 RMK A01 T02470009  RH  021%=      5-min Rain = 0
KOES 192135Z 18009KT 25/01 A2984 RMK A01 T02540011  RH  021%=      5-min Rain = 0
KOES 192140Z 19010KT 25/00 A2984 RMK A01 T02530004  RH  020%=      5-min Rain = 0
KOES 192145Z 18011KT 25/M00 A2984 RMK A01 T02501002  RH  019%=      5-min Rain = 0
KOES 192150Z 19009KT 25/M00 A2983 RMK A01 T02501002  RH  019%=      5-min Rain = 0
KOES 192155Z 19012G17KT 25/M00 A2983 RMK A01 T02511003  RH  019%=      5-min Rain = 0
KOES 192200Z 18012KT 25/M00 A2983 RMK A01 T02481003  RH  019%=      5-min Rain = 0
KOES 192205Z 18011KT 25/M00 A2983 RMK A01 T02471003  RH  019%=      5-min Rain = 0
KOES 192210Z 18009G15KT 25/M00 A2983 RMK A01 T02461002  RH  020%=      5-min Rain = 0
KOES 192215Z 18009G14KT 24/M00 A2983 RMK A01 T02411002  RH  020%=      5-min Rain = 0
KOES 192220Z 18008KT 24/M00 A2983 RMK A01 T02381001  RH  021%=      5-min Rain = 0
KOES 192225Z 18008KT 23/M00 A2983 RMK A01 T02341002  RH  021%=      5-min Rain = 0
KOES 192230Z 18009KT 23/M00 A2983 RMK A01 T02331001  RH  021%=      5-min Rain = 0
KOES 192235Z 18008G13KT 23/M00 A2983 RMK A01 T02331001  RH  022%=      5-min Rain = 0
KOES 192240Z 18008KT 23/00 A2983 RMK A01 T02320000  RH  022%=      5-min Rain = 0
KOES 192245Z 17008G13KT 23/00 A2983 RMK A01 T02320002  RH  022%=      5-min Rain = 0
KOES 192250Z 17008KT 24/00 A2983 RMK A01 T02370004  RH  022%=      5-min Rain = 0
KOES 192255Z 17008KT 24/01 A2983 RMK A01 T02380009  RH  022%=      5-min Rain = 0
KOES 192300Z 17007KT 24/01 A2983 RMK A01 T02370013  RH  023%=      5-min Rain = 0
KOES 192305Z 17008KT 24/02 A2983 RMK A01 T02350015  RH  024%=      5-min Rain = 0
KOES 192310Z 17008KT 23/02 A2983 RMK A01 T02320016  RH  024%=      5-min Rain = 0
KOES 192315Z 17008KT 23/02 A2983 RMK A01 T02270015  RH  025%=      5-min Rain = 0
KOES 192320Z 17007KT 23/02 A2983 RMK A01 T02250015  RH  025%=      5-min Rain = 0
KOES 192325Z 17006KT 22/02 A2983 RMK A01 T02200015  RH  026%=      5-min Rain = 0
KOES 192330Z 16006KT 22/02 A2982 RMK A01 T02160015  RH  027%=      5-min Rain = 0
KOES 192335Z 17006KT 21/02 A2983 RMK A01 T02140015  RH  027%=      5-min Rain = 0
KOES 192340Z 17006KT 21/02 A2983 RMK A01 T02130015  RH  027%=      5-min Rain = 0
KOES 192345Z 17006KT 21/02 A2983 RMK A01 T02110016  RH  028%=      5-min Rain = 0
KOES 192350Z 16006KT 21/02 A2983 RMK A01 T02080018  RH  029%=      5-min Rain = 0
KOES 192355Z 16006KT 21/02 A2983 RMK A01 T02050019  RH  030%=      5-min Rain = 0
KOES 200000Z 16007KT 20/02 A2983 RMK A01 T02020020  RH  030%=      5-min Rain = 0
KOES 200005Z 16007KT 20/02 A2983 RMK A01 T02010021  RH  031%=      5-min Rain = 0
KOES 200010Z 16007KT 20/02 A2983 RMK A01 T02010022  RH  031%=      5-min Rain = 0
KOES 200015Z 16007KT 20/02 A2983 RMK A01 T01980023  RH  032%=      5-min Rain = 0
KOES 200020Z 16007KT 20/02 A2982 RMK A01 T01960023  RH  032%=      5-min Rain = 0
KOES 200025Z 16007KT 20/02 A2982 RMK A01 T01950023  RH  032%=      5-min Rain = 0
KOES 200030Z 16007KT 19/02 A2982 RMK A01 T01920023  RH  033%=      5-min Rain = 0
KOES 200035Z 16008KT 19/02 A2982 RMK A01 T01910022  RH  033%=      5-min Rain = 0
KOES 200040Z 16007KT 19/02 A2982 RMK A01 T01880021  RH  033%=      5-min Rain = 0
KOES 200045Z 16007KT 19/02 A2983 RMK A01 T01860021  RH  034%=      5-min Rain = 0
KOES 200050Z 17007KT 19/02 A2983 RMK A01 T01860021  RH  034%=      5-min Rain = 0
KOES 200055Z 16007KT 18/02 A2983 RMK A01 T01840021  RH  034%=      5-min Rain = 0
KOES 200100Z 16007KT 18/02 A2983 RMK A01 T01840019  RH  034%=      5-min Rain = 0
KOES 200105Z 16007KT 18/02 A2983 RMK A01 T01830019  RH  034%=      5-min Rain = 0
KOES 200110Z 16007KT 18/02 A2983 RMK A01 T01810020  RH  034%=      5-min Rain = 0
KOES 200115Z 17006KT 18/02 A2983 RMK A01 T01800020  RH  035%=      5-min Rain = 0
KOES 200120Z 16007KT 18/02 A2983 RMK A01 T01780020  RH  035%=      5-min Rain = 0
KOES 200125Z 16007KT 18/02 A2983 RMK A01 T01790020  RH  035%=      5-min Rain = 0
KOES 200130Z 17007KT 18/02 A2984 RMK A01 T01790021  RH  035%=      5-min Rain = 0
KOES 200135Z 16007KT 18/02 A2984 RMK A01 T01760022  RH  036%=      5-min Rain = 0
KOES 200140Z 16008KT 18/02 A2984 RMK A01 T01760022  RH  036%=      5-min Rain = 0
KOES 200145Z 17007KT 18/02 A2984 RMK A01 T01770023  RH  036%=      5-min Rain = 0
KOES 200150Z 17008KT 18/02 A2984 RMK A01 T01750024  RH  037%=      5-min Rain = 0
KOES 200155Z 18009KT 17/03 A2985 RMK A01 T01740026  RH  038%=      5-min Rain = 0
KOES 200200Z 18008KT 17/03 A2985 RMK A01 T01720027  RH  039%=      5-min Rain = 0
KOES 200205Z 18008KT 17/03 A2985 RMK A01 T01690030  RH  040%=      5-min Rain = 0
KOES 200210Z 17008KT 17/03 A2985 RMK A01 T01670031  RH  041%=      5-min Rain = 0
KOES 200215Z 17009KT 17/03 A2985 RMK A01 T01670033  RH  041%=      5-min Rain = 0
KOES 200220Z 17008KT 17/04 A2985 RMK A01 T01670035  RH  042%=      5-min Rain = 0
KOES 200225Z 17008KT 17/04 A2985 RMK A01 T01670037  RH  043%=      5-min Rain = 0
KOES 200230Z 17008KT 17/04 A2984 RMK A01 T01660039  RH  044%=      5-min Rain = 0
KOES 200235Z 17008KT 17/04 A2984 RMK A01 T01670042  RH  044%=      5-min Rain = 0
KOES 200240Z 17008G13KT 17/05 A2984 RMK A01 T01680045  RH  045%=      5-min Rain = 0
KOES 200245Z 17008KT 17/05 A2984 RMK A01 T01690047  RH  045%=      5-min Rain = 0
KOES 200250Z 17009KT 17/05 A2984 RMK A01 T01690049  RH  046%=      5-min Rain = 0
KOES 200255Z 17007KT 17/05 A2985 RMK A01 T01670051  RH  047%=      5-min Rain = 0
KOES 200300Z 17007KT 17/05 A2985 RMK A01 T01660052  RH  048%=      5-min Rain = 0
KOES 200305Z 17006KT 16/05 A2985 RMK A01 T01630053  RH  049%=      5-min Rain = 0
KOES 200310Z 16006KT 16/05 A2985 RMK A01 T01620054  RH  050%=      5-min Rain = 0
KOES 200315Z 17006KT 16/06 A2985 RMK A01 T01590055  RH  051%=      5-min Rain = 0
KOES 200320Z 17008KT 16/06 A2985 RMK A01 T01610057  RH  051%=      5-min Rain = 0
KOES 200325Z 18008KT 16/06 A2985 RMK A01 T01640058  RH  051%=      5-min Rain = 0
KOES 200330Z 17008G13KT 17/06 A2985 RMK A01 T01650060  RH  051%=      5-min Rain = 0
KOES 200335Z 17009KT 17/06 A2985 RMK A01 T01660061  RH  051%=      5-min Rain = 0
KOES 200340Z 17009KT 17/06 A2985 RMK A01 T01660061  RH  051%=      5-min Rain = 0
KOES 200345Z 17009G14KT 17/06 A2985 RMK A01 T01660063  RH  052%=      5-min Rain = 0
KOES 200350Z 17008KT 17/06 A2985 RMK A01 T01650064  RH  052%=      5-min Rain = 0
KOES 200355Z 17008G13KT 16/06 A2985 RMK A01 T01640064  RH  053%=      5-min Rain = 0
KOES 200400Z 17008KT 16/07 A2985 RMK A01 T01630065  RH  053%=      5-min Rain = 0
KOES 200405Z 17008KT 16/07 A2985 RMK A01 T01620065  RH  054%=      5-min Rain = 0
KOES 200410Z 17008KT 16/07 A2985 RMK A01 T01620066  RH  054%=      5-min Rain = 0
KOES 200415Z 17008KT 16/07 A2985 RMK A01 T01610067  RH  055%=      5-min Rain = 0
KOES 200420Z 17009KT 16/07 A2985 RMK A01 T01600067  RH  055%=      5-min Rain = 0
KOES 200425Z 17008G13KT 16/07 A2985 RMK A01 T01600068  RH  056%=      5-min Rain = 0
KOES 200430Z 17009KT 16/07 A2985 RMK A01 T01590069  RH  056%=      5-min Rain = 0
KOES 200435Z 17009G14KT 16/07 A2985 RMK A01 T01580069  RH  057%=      5-min Rain = 0
KOES 200440Z 18009KT 16/07 A2985 RMK A01 T01570069  RH  058%=      5-min Rain = 0
KOES 200445Z 17009KT 16/07 A2985 RMK A01 T01550070  RH  058%=      5-min Rain = 0
KOES 200450Z 18010KT 15/07 A2986 RMK A01 T01540071  RH  059%=      5-min Rain = 0
KOES 200455Z 18010KT 15/07 A2986 RMK A01 T01540072  RH  060%=      5-min Rain = 0
KOES 200500Z 18011KT 16/07 A2986 RMK A01 T01550074  RH  060%=      5-min Rain = 0
KOES 200505Z 18011KT 16/08 A2986 RMK A01 T01550075  RH  061%=      5-min Rain = 0
KOES 200510Z 19011G17KT 16/08 A2986 RMK A01 T01550077  RH  061%=      5-min Rain = 0
KOES 200515Z 19010KT 16/08 A2985 RMK A01 T01550078  RH  062%=      5-min Rain = 0
KOES 200520Z 19010KT 15/08 A2985 RMK A01 T01540079  RH  063%=      5-min Rain = 0
KOES 200525Z 19011KT 15/08 A2986 RMK A01 T01540081  RH  063%=      5-min Rain = 0
KOES 200530Z 19010KT 15/08 A2986 RMK A01 T01540081  RH  064%=      5-min Rain = 0
KOES 200535Z 19010G15KT 15/08 A2986 RMK A01 T01530082  RH  064%=      5-min Rain = 0
KOES 200540Z 19011KT 15/08 A2985 RMK A01 T01540083  RH  064%=      5-min Rain = 0
KOES 200545Z 19012KT 15/08 A2985 RMK A01 T01540084  RH  064%=      5-min Rain = 0
KOES 200550Z 19011G16KT 15/08 A2985 RMK A01 T01540084  RH  065%=      5-min Rain = 0
KOES 200555Z 19012KT 15/08 A2985 RMK A01 T01540084  RH  065%=      5-min Rain = 0

Page generated in 0.015 seconds.